sensor_id;sensor_type;location;lat;lon;timestamp;pressure;altitude;pressure_sealevel;temperature;humidity
10716;BME280;5409;42.620;23.316;2023-04-05T00:00:56;91609.81;;;-0.92;100.00
10716;BME280;5409;42.620;23.316;2023-04-05T00:03:23;91613.63;;;-0.93;100.00
10716;BME280;5409;42.620;23.316;2023-04-05T00:05:50;91609.03;;;-0.89;100.00
10716;BME280;5409;42.620;23.316;2023-04-05T00:08:19;91609.03;;;-0.89;100.00
10716;BME280;5409;42.620;23.316;2023-04-05T00:10:50;91596.06;;;-1.01;100.00
10716;BME280;5409;42.620;23.316;2023-04-05T00:13:17;91600.66;;;-0.94;100.00
10716;BME280;5409;42.620;23.316;2023-04-05T00:15:44;91607.13;;;-0.85;100.00
10716;BME280;5409;42.620;23.316;2023-04-05T00:18:16;91589.97;;;-1.01;100.00
10716;BME280;5409;42.620;23.316;2023-04-05T00:20:48;91572.44;;;-1.13;100.00
10716;BME280;5409;42.620;23.316;2023-04-05T00:23:16;91595.31;;;-1.01;100.00
10716;BME280;5409;42.620;23.316;2023-04-05T00:25:43;91594.19;;;-1.00;100.00
10716;BME280;5409;42.620;23.316;2023-04-05T00:28:10;91599.53;;;-1.00;100.00
10716;BME280;5409;42.620;23.316;2023-04-05T00:30:36;91602.94;;;-1.00;100.00
10716;BME280;5409;42.620;23.316;2023-04-05T00:33:03;91591.50;;;-0.93;100.00
10716;BME280;5409;42.620;23.316;2023-04-05T00:35:31;91611.72;;;-0.82;100.00
10716;BME280;5409;42.620;23.316;2023-04-05T00:37:58;91607.50;;;-0.83;100.00
10716;BME280;5409;42.620;23.316;2023-04-05T00:40:25;91601.00;;;-0.82;100.00
10716;BME280;5409;42.620;23.316;2023-04-05T00:42:51;91605.59;;;-0.89;100.00
10716;BME280;5409;42.620;23.316;2023-04-05T00:45:18;91594.88;;;-0.89;100.00
10716;BME280;5409;42.620;23.316;2023-04-05T00:47:45;91595.66;;;-0.89;100.00
10716;BME280;5409;42.620;23.316;2023-04-05T00:50:12;91597.94;;;-0.84;100.00
10716;BME280;5409;42.620;23.316;2023-04-05T00:52:42;91589.19;;;-0.95;100.00
10716;BME280;5409;42.620;23.316;2023-04-05T00:55:09;91598.69;;;-0.76;100.00
10716;BME280;5409;42.620;23.316;2023-04-05T00:57:36;91605.94;;;-0.73;100.00
10716;BME280;5409;42.620;23.316;2023-04-05T01:00:05;91586.53;;;-0.98;100.00
10716;BME280;5409;42.620;23.316;2023-04-05T01:02:35;91599.09;;;-0.85;100.00
10716;BME280;5409;42.620;23.316;2023-04-05T01:05:20;91606.75;;;-0.80;100.00
10716;BME280;5409;42.620;23.316;2023-04-05T01:07:56;91615.50;;;-0.79;100.00
10716;BME280;5409;42.620;23.316;2023-04-05T01:10:31;91615.91;;;-0.81;100.00
10716;BME280;5409;42.620;23.316;2023-04-05T01:13:00;91618.56;;;-0.84;100.00
10716;BME280;5409;42.620;23.316;2023-04-05T01:15:27;91619.72;;;-0.78;100.00
10716;BME280;5409;42.620;23.316;2023-04-05T01:17:54;91624.66;;;-0.73;100.00
10716;BME280;5409;42.620;23.316;2023-04-05T01:20:22;91620.50;;;-0.78;100.00
10716;BME280;5409;42.620;23.316;2023-04-05T01:23:16;91623.91;;;-0.77;100.00
10716;BME280;5409;42.620;23.316;2023-04-05T01:32:01;91629.28;;;-0.74;100.00
10716;BME280;5409;42.620;23.316;2023-04-05T01:34:35;91626.59;;;-0.81;100.00
10716;BME280;5409;42.620;23.316;2023-04-05T01:37:07;91623.53;;;-0.76;100.00
10716;BME280;5409;42.620;23.316;2023-04-05T01:39:37;91620.50;;;-0.78;100.00
10716;BME280;5409;42.620;23.316;2023-04-05T01:42:04;91618.97;;;-0.86;100.00
10716;BME280;5409;42.620;23.316;2023-04-05T01:44:32;91620.09;;;-0.76;100.00
10716;BME280;5409;42.620;23.316;2023-04-05T01:46:59;91571.28;;;-1.12;100.00
10716;BME280;5409;42.620;23.316;2023-04-05T01:49:26;91610.16;;;-0.79;100.00
10716;BME280;5409;42.620;23.316;2023-04-05T01:51:52;91609.41;;;-0.83;100.00
10716;BME280;5409;42.620;23.316;2023-04-05T01:54:19;91610.94;;;-0.79;100.00
10716;BME280;5409;42.620;23.316;2023-04-05T01:56:46;91616.25;;;-0.72;100.00
10716;BME280;5409;42.620;23.316;2023-04-05T01:59:12;91607.81;;;-0.67;100.00
10716;BME280;5409;42.620;23.316;2023-04-05T02:01:40;91612.41;;;-0.64;100.00
10716;BME280;5409;42.620;23.316;2023-04-05T02:04:07;91611.63;;;-0.54;100.00
10716;BME280;5409;42.620;23.316;2023-04-05T02:06:34;91613.47;;;-0.40;100.00
10716;BME280;5409;42.620;23.316;2023-04-05T02:09:00;91621.09;;;-0.28;100.00
10716;BME280;5409;42.620;23.316;2023-04-05T02:11:27;91613.41;;;-0.23;100.00
10716;BME280;5409;42.620;23.316;2023-04-05T02:13:54;91613.44;;;-0.26;100.00
10716;BME280;5409;42.620;23.316;2023-04-05T02:16:20;91608.78;;;-0.19;100.00
10716;BME280;5409;42.620;23.316;2023-04-05T02:18:49;91618.38;;;-0.21;100.00
10716;BME280;5409;42.620;23.316;2023-04-05T02:21:15;91610.34;;;-0.25;100.00
10716;BME280;5409;42.620;23.316;2023-04-05T02:23:42;91610.34;;;-0.21;100.00
10716;BME280;5409;42.620;23.316;2023-04-05T02:26:09;91592.03;;;-0.33;100.00
10716;BME280;5409;42.620;23.316;2023-04-05T02:28:36;91619.19;;;-0.31;100.00
10716;BME280;5409;42.620;23.316;2023-04-05T02:31:07;91623.78;;;-0.35;100.00
10716;BME280;5409;42.620;23.316;2023-04-05T02:33:35;91615.00;;;-0.39;100.00
10716;BME280;5409;42.620;23.316;2023-04-05T02:36:05;91610.44;;;-0.49;100.00
10716;BME280;5409;42.620;23.316;2023-04-05T02:38:32;91611.19;;;-0.45;100.00
10716;BME280;5409;42.620;23.316;2023-04-05T02:40:59;91602.81;;;-0.54;100.00
10716;BME280;5409;42.620;23.316;2023-04-05T02:43:26;91613.50;;;-0.54;100.00
10716;BME280;5409;42.620;23.316;2023-04-05T02:45:52;91607.00;;;-0.43;100.00
10716;BME280;5409;42.620;23.316;2023-04-05T02:48:19;91616.56;;;-0.42;100.00
10716;BME280;5409;42.620;23.316;2023-04-05T02:50:47;91618.03;;;-0.34;100.00
10716;BME280;5409;42.620;23.316;2023-04-05T02:53:15;91611.94;;;-0.38;100.00
10716;BME280;5409;42.620;23.316;2023-04-05T02:55:43;91613.84;;;-0.38;100.00
10716;BME280;5409;42.620;23.316;2023-04-05T02:58:17;91605.78;;;-0.28;100.00
10716;BME280;5409;42.620;23.316;2023-04-05T03:00:44;91617.28;;;-0.34;100.00
10716;BME280;5409;42.620;23.316;2023-04-05T03:03:15;91614.97;;;-0.32;100.00
10716;BME280;5409;42.620;23.316;2023-04-05T03:05:42;91616.09;;;-0.26;100.00
10716;BME280;5409;42.620;23.316;2023-04-05T03:08:09;91616.81;;;-0.15;100.00
10716;BME280;5409;42.620;23.316;2023-04-05T03:10:44;91616.78;;;-0.08;100.00
10716;BME280;5409;42.620;23.316;2023-04-05T03:13:11;91611.00;;;0.00;100.00
10716;BME280;5409;42.620;23.316;2023-04-05T03:15:38;91609.84;;;-0.03;100.00
10716;BME280;5409;42.620;23.316;2023-04-05T03:18:04;91608.69;;;-0.02;100.00
10716;BME280;5409;42.620;23.316;2023-04-05T03:20:32;91604.88;;;-0.01;100.00
10716;BME280;5409;42.620;23.316;2023-04-05T03:22:59;91616.38;;;-0.03;100.00
10716;BME280;5409;42.620;23.316;2023-04-05T03:25:26;91612.53;;;-0.03;100.00
10716;BME280;5409;42.620;23.316;2023-04-05T03:27:56;91617.81;;;0.08;100.00
10716;BME280;5409;42.620;23.316;2023-04-05T03:30:25;91614.84;;;-0.01;100.00
10716;BME280;5409;42.620;23.316;2023-04-05T03:32:53;91615.63;;;-0.07;100.00
10716;BME280;5409;42.620;23.316;2023-04-05T03:35:22;91623.28;;;-0.09;100.00
10716;BME280;5409;42.620;23.316;2023-04-05T03:37:51;91621.41;;;-0.16;100.00
10716;BME280;5409;42.620;23.316;2023-04-05T03:40:19;91617.19;;;-0.13;100.00
10716;BME280;5409;42.620;23.316;2023-04-05T03:42:47;91617.56;;;-0.11;100.00
10716;BME280;5409;42.620;23.316;2023-04-05T03:45:17;91624.88;;;-0.22;100.00
10716;BME280;5409;42.620;23.316;2023-04-05T03:47:44;91626.78;;;-0.19;100.00
10716;BME280;5409;42.620;23.316;2023-04-05T03:50:11;91628.25;;;-0.11;100.00
10716;BME280;5409;42.620;23.316;2023-04-05T03:52:38;91634.38;;;-0.07;100.00
10716;BME280;5409;42.620;23.316;2023-04-05T03:55:05;91635.53;;;-0.08;100.00
10716;BME280;5409;42.620;23.316;2023-04-05T03:57:32;91632.47;;;-0.10;100.00
10716;BME280;5409;42.620;23.316;2023-04-05T03:59:59;91636.63;;;-0.03;100.00
10716;BME280;5409;42.620;23.316;2023-04-05T04:02:27;91640.47;;;-0.03;100.00
10716;BME280;5409;42.620;23.316;2023-04-05T04:04:53;91643.19;;;-0.10;100.00
10716;BME280;5409;42.620;23.316;2023-04-05T04:07:20;91637.44;;;-0.09;100.00
10716;BME280;5409;42.620;23.316;2023-04-05T04:09:47;91636.28;;;-0.04;100.00
10716;BME280;5409;42.620;23.316;2023-04-05T04:12:13;91644.25;;;0.06;100.00
10716;BME280;5409;42.620;23.316;2023-04-05T04:14:40;91622.50;;;-0.06;100.00
10716;BME280;5409;42.620;23.316;2023-04-05T04:17:07;91641.97;;;0.04;100.00
10716;BME280;5409;42.620;23.316;2023-04-05T04:19:35;91633.91;;;0.08;100.00
10716;BME280;5409;42.620;23.316;2023-04-05T04:22:01;91640.78;;;0.12;100.00
10716;BME280;5409;42.620;23.316;2023-04-05T04:24:28;91644.28;;;0.02;100.00
10716;BME280;5409;42.620;23.316;2023-04-05T04:26:56;91638.66;;;-0.24;100.00
10716;BME280;5409;42.620;23.316;2023-04-05T04:29:23;91637.50;;;-0.19;100.00
10716;BME280;5409;42.620;23.316;2023-04-05T04:31:54;91644.72;;;-0.06;100.00
10716;BME280;5409;42.620;23.316;2023-04-05T04:34:21;91655.00;;;-0.04;100.00
10716;BME280;5409;42.620;23.316;2023-04-05T04:36:51;91660.00;;;-0.03;100.00
10716;BME280;5409;42.620;23.316;2023-04-05T04:39:25;91662.22;;;0.09;100.00
10716;BME280;5409;42.620;23.316;2023-04-05T04:41:52;91656.88;;;0.09;100.00
10716;BME280;5409;42.620;23.316;2023-04-05T04:44:20;91637.06;;;-0.11;100.00
10716;BME280;5409;42.620;23.316;2023-04-05T04:46:52;91665.31;;;0.07;100.00
10716;BME280;5409;42.620;23.316;2023-04-05T04:49:19;91664.56;;;0.03;100.00
10716;BME280;5409;42.620;23.316;2023-04-05T04:51:46;91666.47;;;-0.01;100.00
10716;BME280;5409;42.620;23.316;2023-04-05T04:54:14;91682.19;;;-0.03;100.00
10716;BME280;5409;42.620;23.316;2023-04-05T04:56:45;91669.22;;;-0.11;100.00
10716;BME280;5409;42.620;23.316;2023-04-05T04:59:11;91671.13;;;-0.08;100.00
10716;BME280;5409;42.620;23.316;2023-04-05T05:01:38;91668.75;;;0.04;100.00
10716;BME280;5409;42.620;23.316;2023-04-05T05:04:05;91665.69;;;0.06;100.00
10716;BME280;5409;42.620;23.316;2023-04-05T05:06:32;91672.97;;;0.02;100.00
10716;BME280;5409;42.620;23.316;2023-04-05T05:08:59;91683.31;;;0.03;100.00
10716;BME280;5409;42.620;23.316;2023-04-05T05:11:28;91656.16;;;-0.05;100.00
10716;BME280;5409;42.620;23.316;2023-04-05T05:13:54;91657.69;;;-0.01;100.00
10716;BME280;5409;42.620;23.316;2023-04-05T05:16:21;91671.00;;;0.13;100.00
10716;BME280;5409;42.620;23.316;2023-04-05T05:18:49;91683.19;;;0.24;100.00
10716;BME280;5409;42.620;23.316;2023-04-05T05:21:16;91681.97;;;0.39;100.00
10716;BME280;5409;42.620;23.316;2023-04-05T05:23:43;91689.69;;;0.34;100.00
10716;BME280;5409;42.620;23.316;2023-04-05T05:26:09;91670.91;;;0.30;100.00
10716;BME280;5409;42.620;23.316;2023-04-05T05:28:38;91676.72;;;0.22;100.00
10716;BME280;5409;42.620;23.316;2023-04-05T05:31:05;91675.16;;;0.24;100.00
10716;BME280;5409;42.620;23.316;2023-04-05T05:33:32;91662.94;;;0.20;100.00
10716;BME280;5409;42.620;23.316;2023-04-05T05:35:59;91659.47;;;0.23;100.00
10716;BME280;5409;42.620;23.316;2023-04-05T05:38:26;91649.47;;;0.34;100.00
10716;BME280;5409;42.620;23.316;2023-04-05T05:40:55;91676.31;;;0.27;100.00
10716;BME280;5409;42.620;23.316;2023-04-05T05:43:23;91680.81;;;0.37;100.00
10716;BME280;5409;42.620;23.316;2023-04-05T05:45:51;91671.97;;;0.50;100.00
10716;BME280;5409;42.620;23.316;2023-04-05T05:48:17;91671.78;;;0.75;100.00
10716;BME280;5409;42.620;23.316;2023-04-05T05:50:44;91663.66;;;0.85;100.00
10716;BME280;5409;42.620;23.316;2023-04-05T05:53:13;91660.72;;;0.69;100.00
10716;BME280;5409;42.620;23.316;2023-04-05T05:55:40;91668.81;;;0.62;100.00
10716;BME280;5409;42.620;23.316;2023-04-05T05:58:07;91658.78;;;0.73;100.00
10716;BME280;5409;42.620;23.316;2023-04-05T06:00:34;91660.91;;;0.92;100.00
10716;BME280;5409;42.620;23.316;2023-04-05T06:03:02;91660.91;;;0.92;100.00
10716;BME280;5409;42.620;23.316;2023-04-05T06:05:30;91674.75;;;0.91;100.00
10716;BME280;5409;42.620;23.316;2023-04-05T06:07:56;91685.19;;;0.78;100.00
10716;BME280;5409;42.620;23.316;2023-04-05T06:10:23;91678.94;;;0.92;100.00
10716;BME280;5409;42.620;23.316;2023-04-05T06:12:50;91680.81;;;0.98;100.00
10716;BME280;5409;42.620;23.316;2023-04-05T06:15:17;91675.78;;;1.04;100.00
10716;BME280;5409;42.620;23.316;2023-04-05T06:17:43;91686.22;;;0.91;100.00
10716;BME280;5409;42.620;23.316;2023-04-05T06:20:11;91658.72;;;0.80;100.00
10716;BME280;5409;42.620;23.316;2023-04-05T06:22:39;91704.19;;;0.94;100.00
10716;BME280;5409;42.620;23.316;2023-04-05T06:25:07;91684.91;;;1.13;100.00
10716;BME280;5409;42.620;23.316;2023-04-05T06:27:34;91695.16;;;1.25;100.00
10716;BME280;5409;42.620;23.316;2023-04-05T06:30:01;91702.13;;;1.15;100.00
10716;BME280;5409;42.620;23.316;2023-04-05T06:32:28;91640.66;;;0.88;100.00
10716;BME280;5409;42.620;23.316;2023-04-05T06:34:55;91699.34;;;1.29;100.00
10716;BME280;5409;42.620;23.316;2023-04-05T06:37:23;91718.50;;;1.31;100.00
10716;BME280;5409;42.620;23.316;2023-04-05T06:39:49;91698.59;;;1.25;100.00
10716;BME280;5409;42.620;23.316;2023-04-05T06:42:16;91714.88;;;1.48;100.00
10716;BME280;5409;42.620;23.316;2023-04-05T06:44:43;91710.81;;;1.30;100.00
10716;BME280;5409;42.620;23.316;2023-04-05T06:47:10;91710.75;;;1.40;100.00
10716;BME280;5409;42.620;23.316;2023-04-05T06:49:36;91688.94;;;1.72;100.00
10716;BME280;5409;42.620;23.316;2023-04-05T06:52:03;91719.28;;;1.69;100.00
10716;BME280;5409;42.620;23.316;2023-04-05T06:54:32;91707.56;;;1.52;100.00
10716;BME280;5409;42.620;23.316;2023-04-05T06:56:59;91721.28;;;1.61;100.00
10716;BME280;5409;42.620;23.316;2023-04-05T06:59:27;91730.50;;;1.60;100.00
10716;BME280;5409;42.620;23.316;2023-04-05T07:01:54;91736.47;;;1.38;100.00
10716;BME280;5409;42.620;23.316;2023-04-05T07:04:21;91739.72;;;1.59;100.00
10716;BME280;5409;42.620;23.316;2023-04-05T07:06:48;91739.72;;;1.59;100.00
10716;BME280;5409;42.620;23.316;2023-04-05T07:09:15;91729.97;;;1.79;100.00
10716;BME280;5409;42.620;23.316;2023-04-05T07:11:43;91737.38;;;1.65;100.00
10716;BME280;5409;42.620;23.316;2023-04-05T07:14:10;91733.03;;;1.78;100.00
10716;BME280;5409;42.620;23.316;2023-04-05T07:16:36;91734.25;;;1.70;100.00
10716;BME280;5409;42.620;23.316;2023-04-05T07:19:03;91738.28;;;1.88;100.00
10716;BME280;5409;42.620;23.316;2023-04-05T07:21:31;91745.22;;;1.86;100.00
10716;BME280;5409;42.620;23.316;2023-04-05T07:23:58;91746.09;;;1.76;100.00
10716;BME280;5409;42.620;23.316;2023-04-05T07:26:26;91752.00;;;1.60;100.00
10716;BME280;5409;42.620;23.316;2023-04-05T07:28:54;91738.81;;;1.73;100.00
10716;BME280;5409;42.620;23.316;2023-04-05T07:31:21;91742.31;;;1.70;100.00
10716;BME280;5409;42.620;23.316;2023-04-05T07:33:48;91740.22;;;1.88;100.00
10716;BME280;5409;42.620;23.316;2023-04-05T07:36:14;91742.69;;;1.72;100.00
10716;BME280;5409;42.620;23.316;2023-04-05T07:38:41;91741.41;;;1.83;100.00
10716;BME280;5409;42.620;23.316;2023-04-05T07:41:09;91735.66;;;1.85;100.00
10716;BME280;5409;42.620;23.316;2023-04-05T07:43:36;91741.56;;;1.69;100.00
10716;BME280;5409;42.620;23.316;2023-04-05T07:46:04;91755.69;;;1.77;100.00
10716;BME280;5409;42.620;23.316;2023-04-05T07:48:31;91749.09;;;1.85;100.00
10716;BME280;5409;42.620;23.316;2023-04-05T07:51:02;91747.78;;;2.00;100.00
10716;BME280;5409;42.620;23.316;2023-04-05T07:53:29;91738.53;;;2.01;100.00
10716;BME280;5409;42.620;23.316;2023-04-05T07:55:56;91759.66;;;1.62;100.00
10716;BME280;5409;42.620;23.316;2023-04-05T07:58:23;91759.72;;;1.55;100.00
10716;BME280;5409;42.620;23.316;2023-04-05T08:00:50;91771.84;;;1.73;100.00
10716;BME280;5409;42.620;23.316;2023-04-05T08:03:19;91757.84;;;1.92;100.00
10716;BME280;5409;42.620;23.316;2023-04-05T08:05:46;91759.34;;;1.97;100.00
10716;BME280;5409;42.620;23.316;2023-04-05T08:08:13;91775.53;;;1.90;100.00
10716;BME280;5409;42.620;23.316;2023-04-05T08:10:39;91776.88;;;2.08;100.00
10716;BME280;5409;42.620;23.316;2023-04-05T08:13:06;91774.88;;;2.16;100.00
10716;BME280;5409;42.620;23.316;2023-04-05T08:15:33;91770.19;;;2.23;100.00
10716;BME280;5409;42.620;23.316;2023-04-05T08:18:00;91775.72;;;2.09;100.00
10716;BME280;5409;42.620;23.316;2023-04-05T08:20:28;91771.56;;;2.01;100.00
10716;BME280;5409;42.620;23.316;2023-04-05T08:22:55;91776.16;;;2.04;100.00
10716;BME280;5409;42.620;23.316;2023-04-05T08:25:21;91778.22;;;1.90;100.00
10716;BME280;5409;42.620;23.316;2023-04-05T08:27:48;91782.69;;;2.03;100.00
10716;BME280;5409;42.620;23.316;2023-04-05T08:30:15;91784.31;;;1.94;100.00
10716;BME280;5409;42.620;23.316;2023-04-05T08:32:44;91795.91;;;1.84;100.00
10716;BME280;5409;42.620;23.316;2023-04-05T08:35:10;91785.06;;;1.98;100.00
10716;BME280;5409;42.620;23.316;2023-04-05T08:37:39;91783.53;;;1.97;100.00
10716;BME280;5409;42.620;23.316;2023-04-05T08:40:06;91783.38;;;2.11;100.00
10716;BME280;5409;42.620;23.316;2023-04-05T08:42:36;91797.16;;;2.16;100.00
10716;BME280;5409;42.620;23.316;2023-04-05T08:45:03;91794.91;;;2.08;100.00
10716;BME280;5409;42.620;23.316;2023-04-05T08:47:35;91794.13;;;2.11;100.00
10716;BME280;5409;42.620;23.316;2023-04-05T08:50:03;91785.31;;;2.07;100.00
10716;BME280;5409;42.620;23.316;2023-04-05T08:52:31;91807.88;;;2.20;100.00
10716;BME280;5409;42.620;23.316;2023-04-05T08:55:00;91803.03;;;2.04;100.00
10716;BME280;5409;42.620;23.316;2023-04-05T08:57:28;91801.44;;;2.07;100.00
10716;BME280;5409;42.620;23.316;2023-04-05T08:59:57;91819.69;;;1.85;100.00
10716;BME280;5409;42.620;23.316;2023-04-05T09:02:25;91810.09;;;1.84;100.00
10716;BME280;5409;42.620;23.316;2023-04-05T09:04:52;91828.28;;;2.14;100.00
10716;BME280;5409;42.620;23.316;2023-04-05T09:07:19;91820.38;;;1.96;100.00
10716;BME280;5409;42.620;23.316;2023-04-05T09:09:48;91818.28;;;2.14;100.00
10716;BME280;5409;42.620;23.316;2023-04-05T09:12:19;91834.06;;;2.49;100.00
10716;BME280;5409;42.620;23.316;2023-04-05T09:14:47;91831.53;;;2.68;100.00
10716;BME280;5409;42.620;23.316;2023-04-05T09:17:15;91851.03;;;2.42;100.00
10716;BME280;5409;42.620;23.316;2023-04-05T09:19:42;91833.16;;;2.22;100.00
10716;BME280;5409;42.620;23.316;2023-04-05T09:22:09;91832.94;;;2.46;100.00
10716;BME280;5409;42.620;23.316;2023-04-05T09:24:37;91821.22;;;2.63;100.00
10716;BME280;5409;42.620;23.316;2023-04-05T09:27:07;91801.66;;;2.59;100.00
10716;BME280;5409;42.620;23.316;2023-04-05T09:29:36;91823.16;;;2.93;100.00
10716;BME280;5409;42.620;23.316;2023-04-05T09:32:04;91807.28;;;2.72;100.00
10716;BME280;5409;42.620;23.316;2023-04-05T09:34:32;91812.97;;;2.77;100.00
10716;BME280;5409;42.620;23.316;2023-04-05T09:37:01;91821.13;;;3.30;100.00
10716;BME280;5409;42.620;23.316;2023-04-05T09:39:29;91816.75;;;3.13;100.00
10716;BME280;5409;42.620;23.316;2023-04-05T09:42:07;91830.16;;;3.17;100.00
10716;BME280;5409;42.620;23.316;2023-04-05T09:44:55;91821.59;;;2.95;100.00
10716;BME280;5409;42.620;23.316;2023-04-05T09:47:23;91815.78;;;3.00;100.00
10716;BME280;5409;42.620;23.316;2023-04-05T09:49:52;91799.06;;;2.82;100.00
10716;BME280;5409;42.620;23.316;2023-04-05T09:52:22;91811.41;;;3.10;100.00
10716;BME280;5409;42.620;23.316;2023-04-05T09:54:51;91807.38;;;2.95;100.00
10716;BME280;5409;42.620;23.316;2023-04-05T09:57:18;91816.22;;;2.95;100.00
10716;BME280;5409;42.620;23.316;2023-04-05T09:59:45;91812.28;;;3.03;100.00
10716;BME280;5409;42.620;23.316;2023-04-05T10:02:14;91819.16;;;3.34;100.00
10716;BME280;5409;42.620;23.316;2023-04-05T10:04:42;91814.75;;;2.91;100.00
10716;BME280;5409;42.620;23.316;2023-04-05T10:07:10;91830.00;;;2.34;100.00
10716;BME280;5409;42.620;23.316;2023-04-05T10:09:38;91827.16;;;2.08;100.00
10716;BME280;5409;42.620;23.316;2023-04-05T10:12:06;91823.94;;;1.83;100.00
10716;BME280;5409;42.620;23.316;2023-04-05T10:14:33;91824.97;;;1.48;100.00
10716;BME280;5409;42.620;23.316;2023-04-05T10:17:07;91828.59;;;1.24;100.00
10716;BME280;5409;42.620;23.316;2023-04-05T10:19:49;91825.53;;;1.22;100.00
10716;BME280;5409;42.620;23.316;2023-04-05T10:22:23;91822.69;;;1.47;100.00
10716;BME280;5409;42.620;23.316;2023-04-05T10:24:58;91828.94;;;1.33;100.00
10716;BME280;5409;42.620;23.316;2023-04-05T10:27:30;91827.84;;;1.24;100.00
10716;BME280;5409;42.620;23.316;2023-04-05T10:30:03;91822.75;;;1.40;100.00
10716;BME280;5409;42.620;23.316;2023-04-05T10:32:51;91831.81;;;1.56;100.00
10716;BME280;5409;42.620;23.316;2023-04-05T10:35:26;91835.25;;;1.60;100.00
10716;BME280;5409;42.620;23.316;2023-04-05T10:38:07;91829.41;;;1.69;100.00
10716;BME280;5409;42.620;23.316;2023-04-05T10:40:38;91825.16;;;1.78;100.00
10716;BME280;5409;42.620;23.316;2023-04-05T10:43:14;91826.91;;;1.95;100.00
10716;BME280;5409;42.620;23.316;2023-04-05T10:45:43;91829.50;;;2.06;100.00
10716;BME280;5409;42.620;23.316;2023-04-05T10:48:15;91831.91;;;1.97;100.00
10716;BME280;5409;42.620;23.316;2023-04-05T10:50:47;91837.22;;;2.00;100.00
10716;BME280;5409;42.620;23.316;2023-04-05T10:53:14;91831.72;;;1.70;100.00
10716;BME280;5409;42.620;23.316;2023-04-05T10:55:43;91838.13;;;1.83;100.00
10716;BME280;5409;42.620;23.316;2023-04-05T10:58:11;91833.44;;;1.94;100.00
10716;BME280;5409;42.620;23.316;2023-04-05T11:00:39;91836.81;;;1.58;100.00
10716;BME280;5409;42.620;23.316;2023-04-05T11:03:06;91843.59;;;1.73;100.00
10716;BME280;5409;42.620;23.316;2023-04-05T11:05:34;91830.34;;;1.48;100.00
10716;BME280;5409;42.620;23.316;2023-04-05T11:08:05;91835.13;;;1.78;100.00
10716;BME280;5409;42.620;23.316;2023-04-05T11:10:34;91847.47;;;1.68;100.00
10716;BME280;5409;42.620;23.316;2023-04-05T11:13:05;91847.34;;;1.82;100.00
10716;BME280;5409;42.620;23.316;2023-04-05T11:15:33;91852.00;;;1.78;100.00
10716;BME280;5409;42.620;23.316;2023-04-05T11:18:04;91839.78;;;1.70;100.00
10716;BME280;5409;42.620;23.316;2023-04-05T11:20:45;91843.59;;;1.76;100.00
10716;BME280;5409;42.620;23.316;2023-04-05T11:23:15;91856.03;;;2.00;100.00
10716;BME280;5409;42.620;23.316;2023-04-05T11:25:48;91859.13;;;1.99;100.00
10716;BME280;5409;42.620;23.316;2023-04-05T11:28:23;91850.94;;;2.13;100.00
10716;BME280;5409;42.620;23.316;2023-04-05T11:30:50;91847.38;;;1.79;100.00
10716;BME280;5409;42.620;23.316;2023-04-05T11:33:54;91853.59;;;1.72;100.00
10716;BME280;5409;42.620;23.316;2023-04-05T11:36:37;91863.97;;;1.70;100.00
10716;BME280;5409;42.620;23.316;2023-04-05T11:39:28;91862.94;;;1.54;100.00
10716;BME280;5409;42.620;23.316;2023-04-05T11:42:00;91847.53;;;1.61;100.00
10716;BME280;5409;42.620;23.316;2023-04-05T11:44:28;91852.84;;;1.65;100.00
10716;BME280;5409;42.620;23.316;2023-04-05T11:46:56;91838.84;;;1.91;100.00
10716;BME280;5409;42.620;23.316;2023-04-05T11:49:23;91849.66;;;2.27;100.00
10716;BME280;5409;42.620;23.316;2023-04-05T11:51:51;91852.78;;;2.19;100.00
10716;BME280;5409;42.620;23.316;2023-04-05T11:54:30;91836.97;;;2.28;100.00
10716;BME280;5409;42.620;23.316;2023-04-05T11:56:57;91850.94;;;2.53;100.00
10716;BME280;5409;42.620;23.316;2023-04-05T11:59:30;91844.09;;;2.78;100.00
10716;BME280;5409;42.620;23.316;2023-04-05T12:02:02;91840.88;;;2.90;100.00
10716;BME280;5409;42.620;23.316;2023-04-05T12:04:30;91857.09;;;2.87;100.00
10716;BME280;5409;42.620;23.316;2023-04-05T12:07:24;91848.00;;;3.07;100.00
10716;BME280;5409;42.620;23.316;2023-04-05T12:09:58;91850.19;;;3.16;100.00
10716;BME280;5409;42.620;23.316;2023-04-05T12:12:25;91857.16;;;3.39;100.00
10716;BME280;5409;42.620;23.316;2023-04-05T12:14:57;91855.47;;;3.52;100.00
10716;BME280;5409;42.620;23.316;2023-04-05T12:17:40;91859.63;;;3.57;100.00
10716;BME280;5409;42.620;23.316;2023-04-05T12:20:08;91857.88;;;3.43;100.00
10716;BME280;5409;42.620;23.316;2023-04-05T12:22:36;91855.81;;;2.95;100.00
10716;BME280;5409;42.620;23.316;2023-04-05T12:25:05;91855.16;;;2.87;100.00
10716;BME280;5409;42.620;23.316;2023-04-05T12:27:32;91851.13;;;2.35;100.00
10716;BME280;5409;42.620;23.316;2023-04-05T12:30:06;91855.47;;;2.19;100.00
10716;BME280;5409;42.620;23.316;2023-04-05T12:32:41;91853.41;;;1.97;100.00
10716;BME280;5409;42.620;23.316;2023-04-05T12:35:10;91840.53;;;1.71;100.00
10716;BME280;5409;42.620;23.316;2023-04-05T12:37:38;91843.63;;;1.69;100.00
10716;BME280;5409;42.620;23.316;2023-04-05T12:40:08;91842.66;;;1.97;100.00
10716;BME280;5409;42.620;23.316;2023-04-05T12:42:36;91841.34;;;2.12;100.00
10716;BME280;5409;42.620;23.316;2023-04-05T12:45:04;91845.50;;;2.20;100.00
10716;BME280;5409;42.620;23.316;2023-04-05T12:47:33;91849.34;;;1.75;100.00
10716;BME280;5409;42.620;23.316;2023-04-05T12:50:10;91851.22;;;1.81;100.00
10716;BME280;5409;42.620;23.316;2023-04-05T12:52:37;91837.97;;;2.01;100.00
10716;BME280;5409;42.620;23.316;2023-04-05T12:55:14;91865.00;;;2.27;100.00
10716;BME280;5409;42.620;23.316;2023-04-05T12:57:41;91849.72;;;2.21;100.00
10716;BME280;5409;42.620;23.316;2023-04-05T13:00:09;91851.19;;;2.25;100.00
10716;BME280;5409;42.620;23.316;2023-04-05T13:02:36;91861.84;;;1.95;100.00
10716;BME280;5409;42.620;23.316;2023-04-05T13:05:03;91863.63;;;2.09;100.00
10716;BME280;5409;42.620;23.316;2023-04-05T13:07:30;91851.63;;;2.20;100.00
10716;BME280;5409;42.620;23.316;2023-04-05T13:09:57;91861.56;;;2.26;100.00
10716;BME280;5409;42.620;23.316;2023-04-05T13:12:25;91865.53;;;2.85;100.00